Time;durP1;ratioP1;P1;durP2;ratioP2;P2;SDS_P1;SDS_P2;PMS_P1;PMS_P2;Temp;Humidity;BMP_temperature;BMP_pressure;BME280_temperature;BME280_humidity;BME280_pressure;Samples;Min_cycle;Max_cycle;Signal;HPM_P1;HPM_P2
2021/07/21 00:01:38;;;;;;;11.27;8.93;;;15.20;99.90;14.40;97174.00;;;;5083177;28;20219;-69
2021/07/21 00:04:27;;;;;;;13.40;9.20;;;15.10;99.90;14.50;97170.00;;;;5084569;28;20246;-70
2021/07/21 00:07:18;;;;;;;13.30;8.73;;;15.00;99.90;14.60;97171.00;;;;5071920;28;20233;-68
2021/07/21 00:10:10;;;;;;;11.07;8.70;;;15.00;99.90;14.40;97177.00;;;;5084375;28;20623;-68
2021/07/21 00:16:14;;;;;;;16.27;8.50;;;14.90;99.90;14.30;97167.00;;;;5084175;28;20583;-69
2021/07/21 00:20:05;;;;;;;14.50;10.20;;;14.80;99.90;14.10;97164.00;;;;5075192;28;20203;-68
2021/07/21 00:22:14;;;;;;;14.07;10.07;;;14.70;99.90;14.30;97166.00;;;;5084933;28;20250;-69
2021/07/21 00:25:07;;;;;;;11.27;9.47;;;14.70;99.90;14.40;97175.00;;;;5084604;28;20613;-69
2021/07/21 00:27:56;;;;;;;11.70;7.73;;;14.70;99.90;14.50;97169.00;;;;5083955;28;20203;-69
2021/07/21 00:30:45;;;;;;;12.37;9.10;;;14.70;99.90;14.50;97182.00;;;;5082719;28;20237;-69
2021/07/21 00:33:34;;;;;;;11.27;9.27;;;14.70;99.90;14.60;97181.00;;;;5073004;28;20230;-69
2021/07/21 00:36:23;;;;;;;11.43;8.90;;;14.80;99.90;14.60;97181.00;;;;5083435;28;20203;-69
2021/07/21 00:39:12;;;;;;;12.47;9.37;;;14.80;99.90;14.30;97180.00;;;;5083228;28;20210;-69
2021/07/21 00:42:03;;;;;;;12.27;9.67;;;14.80;99.90;14.20;97179.00;;;;5084303;28;20237;-69
2021/07/21 00:44:53;;;;;;;12.57;9.57;;;14.80;99.90;14.30;97184.00;;;;5084819;28;20595;-69
2021/07/21 00:47:42;;;;;;;11.70;9.03;;;14.70;99.90;14.30;97186.00;;;;5083976;28;20606;-68
2021/07/21 00:50:31;;;;;;;12.97;9.23;;;14.70;99.90;14.20;97181.00;;;;5089973;28;20666;-70
2021/07/21 00:53:20;;;;;;;12.90;8.93;;;14.70;99.90;14.00;97183.00;;;;5083257;28;20235;-70
2021/07/21 00:56:09;;;;;;;11.70;8.90;;;14.60;99.90;13.90;97180.00;;;;5083434;28;20199;-69
2021/07/21 00:58:59;;;;;;;10.27;8.67;;;14.50;99.90;14.20;97171.00;;;;5084004;28;20207;-70
2021/07/21 01:01:48;;;;;;;12.23;10.03;;;14.50;99.90;14.00;97168.00;;;;5082986;28;20206;-70
2021/07/21 01:04:39;;;;;;;15.37;9.03;;;14.50;99.90;13.70;97174.00;;;;5084960;28;20223;-70
2021/07/21 01:07:28;;;;;;;13.77;9.20;;;14.40;99.90;13.70;97168.00;;;;5073124;28;20196;-70
2021/07/21 01:10:18;;;;;;;17.57;10.40;;;14.30;99.90;13.80;97183.00;;;;5082658;28;20207;-69
2021/07/21 01:13:16;;;;;;;13.37;10.40;;;14.30;99.90;13.90;97180.00;;;;5084282;28;20219;-69
2021/07/21 01:16:12;;;;;;;15.77;9.97;;;14.30;99.90;13.90;97181.00;;;;5082926;28;20207;-69
2021/07/21 01:19:10;;;;;;;14.90;10.10;;;14.30;99.90;13.60;97176.00;;;;5083839;28;20653;-70
2021/07/21 01:22:12;;;;;;;15.93;10.70;;;14.20;99.90;13.70;97176.00;;;;5084284;28;20223;-68
2021/07/21 01:25:08;;;;;;;15.67;10.13;;;14.10;99.90;13.90;97165.00;;;;5071045;28;20222;-70
2021/07/21 01:28:02;;;;;;;13.30;9.10;;;14.10;99.90;13.90;97173.00;;;;5083769;28;20203;-70
2021/07/21 01:30:52;;;;;;;12.63;8.70;;;14.20;99.90;13.80;97172.00;;;;5086215;28;20280;-70
2021/07/21 01:33:45;;;;;;;14.20;10.20;;;14.20;99.90;13.90;97173.00;;;;5087085;28;20223;-70
2021/07/21 01:36:40;;;;;;;13.53;8.73;;;14.20;99.90;13.90;97176.00;;;;5086943;28;20195;-69
2021/07/21 01:39:39;;;;;;;14.83;9.73;;;14.20;99.90;13.80;97173.00;;;;5087503;28;20203;-69
2021/07/21 01:42:29;;;;;;;12.77;9.60;;;14.20;99.90;13.60;97177.00;;;;5087054;28;20267;-69
2021/07/21 01:45:20;;;;;;;14.93;9.70;;;14.20;99.90;13.50;97183.00;;;;5087203;28;20233;-69
2021/07/21 01:48:11;;;;;;;11.97;9.40;;;14.10;99.90;13.40;97183.00;;;;5086198;28;20207;-69
2021/07/21 01:51:02;;;;;;;12.20;9.80;;;14.00;99.90;13.50;97184.00;;;;5092021;28;20211;-69
2021/07/21 01:53:52;;;;;;;13.40;9.83;;;13.90;99.90;13.60;97184.00;;;;5085741;28;20706;-69
2021/07/21 01:56:42;;;;;;;12.80;9.57;;;13.90;99.90;13.40;97180.00;;;;5086375;28;20674;-69
2021/07/21 01:59:32;;;;;;;13.63;8.60;;;13.90;99.90;13.30;97183.00;;;;5086725;28;20191;-70
2021/07/21 02:02:24;;;;;;;11.20;9.13;;;13.90;99.90;13.20;97184.00;;;;5086179;28;20230;-69
2021/07/21 02:05:15;;;;;;;15.83;9.67;;;13.80;99.90;13.10;97176.00;;;;5088545;28;20219;-69
2021/07/21 02:08:05;;;;;;;15.90;9.80;;;13.70;99.90;13.10;97174.00;;;;5089932;28;20203;-70
2021/07/21 02:10:57;;;;;;;12.10;9.37;;;13.60;99.90;13.00;97177.00;;;;5090185;28;20207;-69
2021/07/21 02:13:46;;;;;;;14.13;10.30;;;13.60;99.90;12.90;97184.00;;;;5089617;28;20241;-69
2021/07/21 02:16:38;;;;;;;14.67;10.43;;;13.50;99.90;13.00;97176.00;;;;5087703;28;20264;-69
2021/07/21 02:19:31;;;;;;;14.00;9.17;;;13.50;99.90;13.10;97184.00;;;;5086049;28;20215;-69
2021/07/21 02:22:23;;;;;;;13.50;10.07;;;13.40;99.90;13.20;97174.00;;;;5086537;28;20231;-69
2021/07/21 02:25:13;;;;;;;15.40;9.83;;;13.50;99.90;13.20;97180.00;;;;5085366;28;20219;-69
2021/07/21 02:28:01;;;;;;;13.87;10.00;;;13.50;99.90;12.90;97178.00;;;;5086426;28;20199;-69
2021/07/21 02:30:54;;;;;;;14.93;11.47;;;13.50;99.90;12.80;97177.00;;;;5085340;28;20223;-69
2021/07/21 02:33:48;;;;;;;14.77;10.37;;;13.40;99.90;13.00;97169.00;;;;5085833;28;20702;-69
2021/07/21 02:36:40;;;;;;;16.67;10.27;;;13.40;99.90;13.10;97173.00;;;;5085903;28;20210;-69
2021/07/21 02:39:29;;;;;;;15.77;10.27;;;13.40;99.90;13.10;97175.00;;;;5085089;28;20206;-69
2021/07/21 02:42:19;;;;;;;17.27;10.83;;;13.40;99.90;13.00;97183.00;;;;5086215;28;20238;-69
2021/07/21 02:45:09;;;;;;;12.93;10.53;;;13.40;99.90;12.90;97178.00;;;;5085919;28;20226;-69
2021/07/21 02:47:59;;;;;;;14.63;9.93;;;13.40;99.90;12.80;97186.00;;;;5085433;28;20203;-69
2021/07/21 02:50:55;;;;;;;13.53;10.47;;;13.30;99.90;12.80;97191.00;;;;5088876;28;20210;-69
2021/07/21 02:53:51;;;;;;;13.37;9.77;;;13.30;99.90;12.90;97190.00;;;;5085356;28;20280;-68
2021/07/21 02:56:48;;;;;;;14.50;9.23;;;13.30;99.90;12.70;97186.00;;;;5085879;28;20207;-69
2021/07/21 02:59:42;;;;;;;16.10;10.77;;;13.20;99.90;12.70;97191.00;;;;5084785;28;20215;-68
2021/07/21 03:02:34;;;;;;;14.73;10.30;;;13.20;99.90;12.50;97183.00;;;;5084654;28;20223;-69
2021/07/21 03:05:27;;;;;;;15.47;11.03;;;13.10;99.90;12.60;97191.00;;;;5080168;28;20224;-69
2021/07/21 03:08:19;;;;;;;13.33;9.80;;;13.10;99.90;12.50;97191.00;;;;5063771;28;20231;-70
2021/07/21 03:11:13;;;;;;;19.17;11.17;;;13.10;99.90;12.20;97191.00;;;;5076655;28;20216;-70
2021/07/21 03:14:03;;;;;;;15.77;10.70;;;13.00;99.90;12.20;97201.00;;;;5066908;28;20249;-70
2021/07/21 03:16:53;;;;;;;14.93;10.03;;;12.80;99.90;12.10;97188.00;;;;5085207;28;20705;-70
2021/07/21 03:19:45;;;;;;;16.13;10.57;;;12.80;99.90;12.20;97194.00;;;;5084439;28;20215;-69
2021/07/21 03:22:38;;;;;;;16.47;10.47;;;12.70;99.90;12.20;97199.00;;;;5084445;28;20231;-69
2021/07/21 03:25:28;;;;;;;14.63;10.50;;;12.70;99.90;12.10;97206.00;;;;5084713;28;20627;-69
2021/07/21 03:28:19;;;;;;;17.23;11.43;;;12.70;99.90;12.20;97205.00;;;;5085569;28;20209;-68
2021/07/21 03:31:09;;;;;;;17.20;11.53;;;12.60;99.90;12.30;97210.00;;;;5084998;28;20200;-69
2021/07/21 03:34:04;;;;;;;13.87;10.57;;;12.70;99.90;12.30;97204.00;;;;5084753;28;20234;-69
2021/07/21 03:36:56;;;;;;;14.13;10.83;;;12.70;99.90;12.10;97210.00;;;;5084887;28;20200;-69
2021/07/21 03:39:46;;;;;;;13.77;10.43;;;12.70;99.90;12.00;97204.00;;;;5084858;28;20203;-69
2021/07/21 03:42:36;;;;;;;18.30;10.60;;;12.60;99.90;11.80;97214.00;;;;5085356;28;21068;-69
2021/07/21 03:45:30;;;;;;;16.30;10.97;;;12.50;99.90;11.90;97210.00;;;;5085247;28;20231;-69
2021/07/21 03:48:20;;;;;;;14.33;11.40;;;12.50;99.90;12.10;97218.00;;;;5085650;28;20206;-69
2021/07/21 03:51:09;;;;;;;16.23;10.73;;;12.50;99.90;12.20;97219.00;;;;5089009;28;20202;-69
2021/07/21 03:53:58;;;;;;;14.67;11.73;;;12.50;99.90;12.10;97211.00;;;;5085186;28;20219;-69
2021/07/21 03:56:50;;;;;;;15.20;9.70;;;12.70;99.90;12.10;97212.00;;;;5083427;28;20203;-69
2021/07/21 03:59:39;;;;;;;15.03;10.17;;;12.60;99.90;12.20;97222.00;;;;5083561;28;20199;-69
2021/07/21 04:02:32;;;;;;;14.63;10.93;;;12.50;99.90;12.20;97213.00;;;;5084768;28;20670;-69
2021/07/21 04:05:23;;;;;;;14.20;10.13;;;12.60;99.90;12.10;97222.00;;;;5078580;28;20288;-69
2021/07/21 04:08:13;;;;;;;13.43;10.53;;;12.60;99.90;12.20;97224.00;;;;5080924;28;20199;-69
2021/07/21 04:11:04;;;;;;;13.53;9.97;;;12.60;99.90;12.00;97219.00;;;;5084945;28;20199;-69
2021/07/21 04:13:53;;;;;;;13.27;10.23;;;12.60;99.90;12.00;97232.00;;;;5073443;28;20218;-69
2021/07/21 04:16:43;;;;;;;17.87;13.20;;;12.50;99.90;11.90;97221.00;;;;5083773;28;20207;-69
2021/07/21 04:19:34;;;;;;;16.50;11.97;;;12.50;99.90;11.90;97228.00;;;;5084780;28;20215;-69
2021/07/21 04:22:24;;;;;;;14.20;10.50;;;12.50;99.90;11.80;97233.00;;;;5084660;28;20230;-69
2021/07/21 04:25:15;;;;;;;21.80;10.73;;;12.50;99.90;11.90;97231.00;;;;5083886;28;20203;-69
2021/07/21 04:28:05;;;;;;;15.40;10.93;;;12.40;99.90;12.00;97238.00;;;;5084784;28;20217;-69
2021/07/21 04:30:56;;;;;;;17.70;10.33;;;12.50;99.90;11.90;97240.00;;;;5084400;28;20210;-69
2021/07/21 04:33:45;;;;;;;19.60;12.10;;;12.50;99.90;12.00;97243.00;;;;5085345;28;20287;-69
2021/07/21 04:36:38;;;;;;;16.33;11.60;;;12.50;99.90;12.10;97234.00;;;;5078196;28;20206;-69
2021/07/21 04:39:27;;;;;;;17.00;11.53;;;12.50;99.90;12.30;97245.00;;;;5083989;28;20202;-69
2021/07/21 04:42:16;;;;;;;15.73;11.53;;;12.50;99.90;12.40;97238.00;;;;5084073;28;20238;-69
2021/07/21 04:45:07;;;;;;;17.70;12.03;;;12.70;99.90;12.50;97247.00;;;;5085570;28;20567;-69
2021/07/21 04:47:56;;;;;;;18.33;12.27;;;12.70;99.90;12.70;97247.00;;;;5085669;28;20207;-69
2021/07/21 04:50:46;;;;;;;18.87;11.50;;;12.90;99.90;12.80;97253.00;;;;5086978;28;20209;-69
2021/07/21 04:53:37;;;;;;;14.13;11.47;;;13.00;99.90;13.10;97249.00;;;;5083385;28;20219;-69
2021/07/21 04:56:26;;;;;;;16.83;10.97;;;13.10;99.90;13.10;97252.00;;;;5084509;28;20207;-69
2021/07/21 04:59:15;;;;;;;17.83;11.50;;;13.20;99.90;13.40;97253.00;;;;5085111;28;20207;-71
2021/07/21 05:02:05;;;;;;;14.93;11.30;;;13.40;99.90;13.30;97244.00;;;;5084547;28;20248;-71
2021/07/21 05:04:54;;;;;;;13.67;10.93;;;13.50;99.90;13.20;97248.00;;;;5086257;28;20204;-71
2021/07/21 05:07:43;;;;;;;17.53;11.00;;;13.60;99.90;13.20;97239.00;;;;5080095;28;20219;-71
2021/07/21 05:10:34;;;;;;;15.63;11.27;;;13.60;99.90;13.40;97255.00;;;;5087053;28;20214;-70
2021/07/21 05:13:23;;;;;;;14.30;11.00;;;13.70;99.90;13.60;97249.00;;;;5087911;28;20699;-71
2021/07/21 05:16:13;;;;;;;19.87;12.30;;;13.80;99.90;13.60;97248.00;;;;5086912;28;20195;-71
2021/07/21 05:19:01;;;;;;;14.83;10.33;;;13.90;99.90;13.60;97247.00;;;;5088413;28;20199;-71
2021/07/21 05:21:52;;;;;;;13.20;10.27;;;13.90;99.90;13.90;97248.00;;;;5085120;28;20225;-71
2021/07/21 05:24:41;;;;;;;17.50;12.10;;;14.00;99.90;13.90;97246.00;;;;5084306;28;20913;-71
2021/07/21 05:27:32;;;;;;;15.33;11.03;;;14.10;99.90;14.20;97253.00;;;;5086026;28;20219;-71
2021/07/21 05:30:21;;;;;;;15.63;11.00;;;14.30;99.90;14.20;97245.00;;;;5086815;28;20234;-72
2021/07/21 05:33:11;;;;;;;14.03;10.93;;;14.40;99.90;14.30;97249.00;;;;5087887;28;20241;-69
2021/07/21 05:36:01;;;;;;;16.03;10.40;;;14.50;99.90;14.60;97252.00;;;;5086603;28;20232;-71
2021/07/21 05:38:50;;;;;;;14.13;10.77;;;14.60;99.90;14.80;97258.00;;;;5087498;28;20214;-71
2021/07/21 05:41:40;;;;;;;17.87;11.00;;;14.70;99.90;14.90;97269.00;;;;5075319;28;20214;-71
2021/07/21 05:44:30;;;;;;;17.80;11.23;;;14.90;99.90;14.90;97261.00;;;;5067860;28;20211;-71
2021/07/21 05:47:19;;;;;;;17.00;12.23;;;15.00;99.90;15.00;97266.00;;;;5064306;28;20227;-71
2021/07/21 05:50:11;;;;;;;14.60;11.03;;;15.10;99.90;15.40;97268.00;;;;5063382;28;20410;-71
2021/07/21 05:53:00;;;;;;;14.77;10.97;;;15.20;99.90;15.70;97281.00;;;;5064128;28;20227;-71
2021/07/21 05:55:49;;;;;;;13.80;11.20;;;15.50;99.90;16.00;97275.00;;;;5066531;28;20540;-70
2021/07/21 05:58:38;;;;;;;15.23;11.33;;;15.70;99.90;16.30;97283.00;;;;5065463;28;20207;-72
2021/07/21 06:01:29;;;;;;;16.93;11.53;;;15.90;99.90;16.50;97280.00;;;;5067600;28;20679;-69
2021/07/21 06:04:18;;;;;;;14.63;10.50;;;16.20;99.90;16.80;97284.00;;;;5067939;28;20212;-71
2021/07/21 06:07:08;;;;;;;18.97;11.83;;;16.40;99.90;17.00;97285.00;;;;5064260;28;20703;-74
2021/07/21 06:09:57;;;;;;;16.50;11.60;;;16.70;99.90;17.20;97293.00;;;;5065002;28;20204;-72
2021/07/21 06:12:46;;;;;;;15.43;11.30;;;16.90;99.90;17.30;97288.00;;;;5067800;28;20743;-72
2021/07/21 06:15:35;;;;;;;14.93;11.17;;;17.00;99.90;17.40;97296.00;;;;5069131;28;20680;-73
2021/07/21 06:18:25;;;;;;;17.00;11.80;;;17.20;99.90;17.70;97296.00;;;;5065977;28;20510;-71
2021/07/21 06:21:14;;;;;;;12.87;9.80;;;17.40;99.90;17.90;97304.00;;;;5066029;28;20280;-71
2021/07/21 06:24:03;;;;;;;17.00;11.40;;;17.60;99.90;18.00;97309.00;;;;5064823;28;20276;-71
2021/07/21 06:26:52;;;;;;;15.93;10.97;;;17.80;99.90;18.10;97307.00;;;;5064567;28;20782;-70
2021/07/21 06:29:42;;;;;;;14.93;10.40;;;17.90;99.90;18.50;97315.00;;;;5064842;28;20588;-72
2021/07/21 06:32:30;;;;;;;16.37;11.70;;;18.10;99.90;18.70;97318.00;;;;5062973;28;20735;-72
2021/07/21 06:35:21;;;;;;;16.17;11.30;;;18.30;99.90;18.90;97320.00;;;;5066638;28;20620;-72
2021/07/21 06:38:10;;;;;;;15.27;10.57;;;18.60;99.90;19.10;97317.00;;;;5059798;28;20196;-72
2021/07/21 06:40:59;;;;;;;14.33;9.60;;;18.80;99.90;19.10;97317.00;;;;5065118;28;20207;-71
2021/07/21 06:43:50;;;;;;;13.77;10.00;;;19.00;99.90;19.40;97325.00;;;;5065521;28;20219;-72
2021/07/21 06:46:39;;;;;;;17.23;10.60;;;19.10;99.90;19.40;97327.00;;;;5065486;28;20200;-71
2021/07/21 06:49:28;;;;;;;12.30;9.63;;;19.30;99.90;19.60;97322.00;;;;5064402;28;20265;-72
2021/07/21 06:52:21;;;;;;;14.50;10.27;;;19.40;99.90;19.70;97326.00;;;;5065563;28;20681;-72
2021/07/21 06:55:11;;;;;;;14.50;10.60;;;19.50;99.90;19.60;97325.00;;;;5063213;28;20774;-71
2021/07/21 06:58:01;;;;;;;12.60;8.63;;;19.60;99.90;19.80;97316.00;;;;5064699;28;20208;-73
2021/07/21 07:00:50;;;;;;;14.17;10.17;;;19.70;99.90;19.90;97326.00;;;;5066745;28;20287;-74
2021/07/21 07:03:39;;;;;;;15.60;10.60;;;19.80;99.90;20.10;97327.00;;;;5066281;28;20733;-72
2021/07/21 07:06:28;;;;;;;12.43;9.10;;;19.90;99.90;20.40;97334.00;;;;5064823;28;20213;-71
2021/07/21 07:09:18;;;;;;;11.97;9.17;;;20.00;99.90;20.60;97325.00;;;;5065872;28;20311;-72
2021/07/21 07:12:08;;;;;;;16.93;10.57;;;20.20;99.90;20.50;97327.00;;;;5068022;28;20687;-73
2021/07/21 07:14:57;;;;;;;11.37;8.27;;;20.40;99.90;20.60;97318.00;;;;5061642;28;20212;-73
2021/07/21 07:17:46;;;;;;;11.87;9.57;;;20.40;99.90;20.80;97325.00;;;;5064497;28;20257;-72
2021/07/21 07:20:35;;;;;;;13.97;9.50;;;20.60;99.90;21.00;97312.00;;;;5063977;28;20305;-72
2021/07/21 07:23:25;;;;;;;10.57;9.07;;;20.70;99.90;21.00;97318.00;;;;5065217;28;20624;-72
2021/07/21 07:26:16;;;;;;;13.40;9.53;;;20.80;99.90;21.30;97323.00;;;;5062908;28;20200;-71
2021/07/21 07:29:06;;;;;;;12.30;9.07;;;20.90;99.90;21.40;97315.00;;;;5064297;28;20216;-72
2021/07/21 07:31:55;;;;;;;13.50;9.70;;;21.10;99.90;21.10;97303.00;;;;5068288;28;20201;-72
2021/07/21 07:34:44;;;;;;;15.23;10.17;;;21.20;99.90;20.80;97310.00;;;;5068191;28;20203;-72
2021/07/21 07:37:33;;;;;;;11.30;9.10;;;21.20;99.90;20.90;97313.00;;;;5069632;28;20388;-72
2021/07/21 07:40:23;;;;;;;13.00;10.27;;;21.20;99.90;21.30;97309.00;;;;5068612;28;20256;-73
2021/07/21 07:43:13;;;;;;;14.83;9.93;;;21.20;99.90;21.70;97311.00;;;;5065541;28;20235;-73
2021/07/21 07:46:02;;;;;;;14.40;9.97;;;21.30;99.90;22.00;97309.00;;;;5068807;28;20249;-72
2021/07/21 07:48:51;;;;;;;11.47;8.80;;;21.50;99.90;22.20;97311.00;;;;5061913;28;20227;-73
2021/07/21 07:51:41;;;;;;;12.00;9.57;;;21.70;99.90;22.40;97308.00;;;;5065534;28;20268;-73
2021/07/21 07:54:30;;;;;;;12.07;8.80;;;22.00;99.90;22.30;97314.00;;;;5066408;28;20196;-73
2021/07/21 07:57:19;;;;;;;13.27;9.73;;;22.10;99.90;22.50;97312.00;;;;5062640;28;20200;-72
2021/07/21 08:00:13;;;;;;;13.03;9.83;;;22.20;99.90;22.50;97306.00;;;;5063793;28;20257;-73
2021/07/21 08:03:02;;;;;;;10.20;8.97;;;22.30;99.90;22.40;97307.00;;;;5067915;28;20310;-72
2021/07/21 08:05:54;;;;;;;15.90;9.10;;;22.40;99.90;22.50;97303.00;;;;5064925;28;20203;-72
2021/07/21 08:08:43;;;;;;;12.43;9.67;;;22.50;99.60;22.80;97308.00;;;;5071094;28;20233;-72
2021/07/21 08:11:32;;;;;;;15.83;9.67;;;22.60;99.30;22.80;97306.00;;;;5062061;28;20207;-73
2021/07/21 08:14:21;;;;;;;14.90;10.03;;;22.60;98.30;22.70;97305.00;;;;5060361;28;20230;-73
2021/07/21 08:17:12;;;;;;;14.40;10.53;;;22.70;97.00;22.60;97288.00;;;;5063716;28;20207;-72
2021/07/21 08:20:01;;;;;;;11.37;10.13;;;22.70;96.80;22.90;97307.00;;;;5063879;28;20207;-73
2021/07/21 08:22:50;;;;;;;13.63;9.23;;;22.80;97.30;23.30;97305.00;;;;5063631;28;20682;-72
2021/07/21 08:25:39;;;;;;;13.27;9.70;;;22.90;97.80;23.30;97297.00;;;;5063409;28;20200;-72
2021/07/21 08:28:28;;;;;;;14.63;10.87;;;23.10;97.20;23.20;97298.00;;;;5066058;28;20304;-72
2021/07/21 08:31:17;;;;;;;12.10;10.00;;;23.10;95.80;23.20;97290.00;;;;5063423;28;20579;-73
2021/07/21 08:34:10;;;;;;;11.50;10.13;;;23.30;95.40;22.80;97292.00;;;;5068030;28;20279;-73
2021/07/21 08:36:58;;;;;;;16.77;11.03;;;23.20;93.50;23.10;97293.00;;;;5066932;28;20203;-73
2021/07/21 08:39:47;;;;;;;15.40;9.97;;;23.20;94.50;23.50;97301.00;;;;5067920;28;20678;-72
2021/07/21 08:42:37;;;;;;;11.30;9.03;;;23.30;94.40;23.50;97292.00;;;;5070038;28;20228;-72
2021/07/21 08:45:28;;;;;;;13.33;10.30;;;23.40;93.20;23.70;97294.00;;;;5064149;28;20933;-72
2021/07/21 08:48:17;;;;;;;13.03;10.37;;;23.50;93.00;24.00;97289.00;;;;5068759;28;20650;-72
2021/07/21 08:51:12;;;;;;;16.10;10.43;;;23.60;93.20;24.10;97290.00;;;;5068124;28;20212;-73
2021/07/21 08:54:01;;;;;;;15.20;9.93;;;23.80;92.90;24.50;97280.00;;;;5070476;28;20207;-72
2021/07/21 08:56:50;;;;;;;11.17;10.03;;;24.00;91.80;24.20;97291.00;;;;5071610;28;20195;-73
2021/07/21 08:59:39;;;;;;;13.60;11.67;;;24.10;90.00;24.40;97291.00;;;;5068754;28;20191;-71
2021/07/21 09:02:29;;;;;;;14.67;10.77;;;24.20;90.70;24.90;97285.00;;;;5066622;28;20702;-72
2021/07/21 09:05:18;;;;;;;14.10;9.93;;;24.40;91.30;25.00;97286.00;;;;5067100;28;20713;-71
2021/07/21 09:08:12;;;;;;;10.17;9.07;;;24.60;92.60;25.00;97291.00;;;;5069849;28;20483;-71
2021/07/21 09:11:03;;;;;;;14.07;10.40;;;24.90;90.00;25.40;97281.00;;;;5065203;28;20266;-71
2021/07/21 09:13:53;;;;;;;12.37;9.53;;;24.80;89.60;24.50;97280.00;;;;5070159;28;20738;-71
2021/07/21 09:16:42;;;;;;;11.80;9.83;;;24.90;87.20;24.70;97279.00;;;;5071748;28;20618;-72
2021/07/21 09:19:35;;;;;;;12.70;10.30;;;24.90;85.00;24.80;97283.00;;;;5065096;28;20217;-72
2021/07/21 09:22:27;;;;;;;11.80;9.67;;;25.00;84.10;25.10;97278.00;;;;5063021;28;20229;-72
2021/07/21 09:25:22;;;;;;;12.47;10.10;;;25.00;83.90;25.50;97280.00;;;;5074260;23;20207;-83
2021/07/21 09:28:13;;;;;;;12.23;10.43;;;25.10;83.20;25.60;97277.00;;;;5076290;28;20247;-83
2021/07/21 09:31:04;;;;;;;14.77;9.67;;;25.20;82.20;24.50;97269.00;;;;5089052;28;20204;-83
2021/07/21 09:33:53;;;;;;;12.93;10.00;;;25.20;80.20;25.10;97269.00;;;;5092254;28;20223;-83
2021/07/21 09:36:42;;;;;;;11.67;9.60;;;25.20;81.50;25.50;97261.00;;;;5093504;28;20205;-84
2021/07/21 09:39:34;;;;;;;15.27;11.47;;;25.20;80.30;25.90;97258.00;;;;5092810;28;20247;-82
2021/07/21 09:42:30;;;;;;;12.00;10.00;;;25.40;81.30;26.20;97261.00;;;;5092098;28;20212;-83
2021/07/21 09:45:20;;;;;;;13.17;10.87;;;25.60;81.40;26.50;97271.00;;;;5079306;28;20207;-84
2021/07/21 09:48:10;;;;;;;15.20;9.80;;;25.80;80.80;26.60;97263.00;;;;5090001;28;20339;-83
2021/07/21 09:50:59;;;;;;;18.77;11.73;;;26.10;78.50;26.20;97259.00;;;;5090369;28;20205;-83
2021/07/21 09:53:49;;;;;;;15.03;11.73;;;26.30;76.60;26.90;97258.00;;;;5092558;28;20241;-83
2021/07/21 09:56:38;;;;;;;12.03;9.70;;;26.50;75.10;26.20;97258.00;;;;5090775;28;20258;-83
2021/07/21 09:59:31;;;;;;;13.07;9.47;;;26.60;73.80;26.70;97242.00;;;;5091622;28;20605;-82
2021/07/21 10:03:14;;;;;;;11.00;9.63;;;26.60;73.50;26.80;97255.00;;;;5094491;28;20217;-83
2021/07/21 10:06:06;;;;;;;14.17;10.50;;;26.60;71.40;26.40;97245.00;;;;5092620;28;20234;-84
2021/07/21 10:08:55;;;;;;;11.47;9.30;;;26.70;70.40;26.50;97243.00;;;;5094556;28;20233;-82
2021/07/21 10:11:46;;;;;;;12.03;9.47;;;26.60;70.30;26.10;97279.00;;;;5092342;28;20209;-82
2021/07/21 10:14:36;;;;;;;12.40;9.50;;;26.50;70.90;25.50;97226.00;;;;5094188;28;20231;-82
2021/07/21 10:17:26;;;;;;;16.07;10.80;;;26.20;70.80;26.90;97235.00;;;;5088949;28;20203;-84
2021/07/21 10:20:14;;;;;;;11.07;9.57;;;26.30;71.00;27.60;97239.00;;;;5078156;28;20817;-84
2021/07/21 10:23:04;;;;;;;13.33;10.20;;;26.50;72.50;26.30;97232.00;;;;5092351;28;20710;-82
2021/07/21 10:25:54;;;;;;;12.40;10.10;;;26.80;68.80;27.20;97226.00;;;;5088449;28;20207;-83
2021/07/21 10:28:43;;;;;;;14.13;9.50;;;26.80;67.20;27.80;97235.00;;;;5091147;28;20851;-83
2021/07/21 10:31:34;;;;;;;13.23;10.50;;;27.10;69.60;28.30;97221.00;;;;5092573;28;20211;-83
2021/07/21 10:34:26;;;;;;;16.30;10.90;;;27.30;70.10;28.10;97220.00;;;;5092770;28;20359;-82
2021/07/21 10:37:15;;;;;;;10.27;9.17;;;27.60;67.40;26.20;97217.00;;;;5089844;28;20206;-83
2021/07/21 10:40:07;;;;;;;14.27;10.20;;;27.50;63.10;27.30;97202.00;;;;5088330;28;20584;-84
2021/07/21 10:46:45;;;;;;;11.77;9.63;;;27.40;68.00;26.50;97209.00;;;;5066556;28;20619;-83
2021/07/21 10:49:40;;;;;;;35.43;27.90;;;27.50;65.60;28.10;97199.00;;;;5091364;28;20273;-83
2021/07/21 10:52:48;;;;;;;72.63;50.80;;;27.60;64.40;29.10;97198.00;;;;5092338;28;20627;-82
2021/07/21 10:55:42;;;;;;;30.03;22.80;;;27.90;65.70;29.20;97188.00;;;;5093416;28;20206;-83
2021/07/21 11:01:52;;;;;;;12.63;10.33;;;28.20;59.20;26.50;97178.00;;;;5092417;28;22292;-86
2021/07/21 11:04:46;;;;;;;11.67;10.43;;;27.60;60.50;26.30;97178.00;;;;5091619;28;20220;-86
2021/07/21 11:07:57;;;;;;;13.47;10.80;;;27.30;61.20;27.70;97180.00;;;;5090571;28;20207;-85
2021/07/21 11:10:49;;;;;;;11.97;10.07;;;27.20;64.60;28.90;97189.00;;;;5084838;28;20225;-85
2021/07/21 11:13:42;;;;;;;10.63;8.63;;;27.60;65.90;28.90;97183.00;;;;5092042;28;20223;-84
2021/07/21 11:16:46;;;;;;;15.37;11.33;;;28.00;59.80;29.10;97176.00;;;;5096289;28;20208;-82
2021/07/21 11:19:45;;;;;;;12.90;9.93;;;28.30;61.00;29.60;97173.00;;;;5091339;28;20235;-85
2021/07/21 11:22:45;;;;;;;22.50;16.27;;;28.60;60.10;30.00;97166.00;;;;5052960;27;20648;-70
2021/07/21 11:25:35;;;;;;;10.57;9.47;;;29.00;60.80;30.40;97160.00;;;;5051473;28;20216;-68
2021/07/21 11:28:29;;;;;;;11.43;9.00;;;29.40;59.60;30.30;97165.00;;;;5048823;28;20212;-69
2021/07/21 11:31:18;;;;;;;13.27;10.93;;;29.70;58.70;31.00;97154.00;;;;5086325;28;20208;-68
2021/07/21 11:34:11;;;;;;;16.00;12.02;;;30.00;59.90;31.50;97156.00;;;;5092092;28;20211;-68
2021/07/21 11:37:01;;;;;;;14.63;11.40;;;30.30;59.80;31.10;97149.00;;;;5091663;28;20225;-68
2021/07/21 11:39:54;;;;;;;15.43;11.38;;;30.40;58.70;31.20;97147.00;;;;5090959;28;20200;-69
2021/07/21 11:42:43;;;;;;;18.67;15.20;;;30.70;58.50;31.30;97144.00;;;;5090475;28;20312;-69
2021/07/21 11:45:32;;;;;;;11.90;10.10;;;30.80;58.20;30.30;97215.00;;;;5085266;28;20214;-69
2021/07/21 11:48:21;;;;;;;13.27;10.23;;;30.60;57.60;30.00;97141.00;;;;5090022;28;20846;-69
2021/07/21 11:51:12;;;;;;;11.57;10.05;;;30.30;56.30;30.80;97143.00;;;;5090097;28;20779;-68
2021/07/21 11:54:01;;;;;;;10.93;9.80;;;30.30;57.80;30.90;97148.00;;;;5091112;28;20584;-69
2021/07/21 11:56:53;;;;;;;12.85;10.40;;;30.50;56.50;31.70;97143.00;;;;5091826;28;20277;-68
2021/07/21 11:59:43;;;;;;;10.98;9.45;;;30.80;58.00;31.90;97141.00;;;;5080389;28;20215;-68
2021/07/21 12:02:32;;;;;;;14.52;10.63;;;30.90;57.50;32.00;97139.00;;;;5085342;28;20294;-68
2021/07/21 12:05:21;;;;;;;11.68;10.48;;;31.30;56.70;32.40;97144.00;;;;5086414;28;20272;-67
2021/07/21 12:08:10;;;;;;;12.05;9.57;;;31.40;57.20;30.30;97125.00;;;;5086682;28;20237;-69
2021/07/21 12:10:59;;;;;;;14.02;10.73;;;31.40;54.70;31.10;97134.00;;;;5088606;28;20257;-68
2021/07/21 12:14:00;;;;;;;11.60;9.75;;;31.10;56.10;30.10;97122.00;;;;5090143;28;20208;-68
2021/07/21 12:16:49;;;;;;;12.13;10.82;;;30.90;54.80;29.20;97127.00;;;;5089194;28;20274;-69
2021/07/21 12:19:39;;;;;;;13.77;8.95;;;30.30;55.80;30.00;97120.00;;;;5092503;28;20214;-70
2021/07/21 12:22:33;;;;;;;13.73;10.98;;;30.30;56.70;28.80;97121.00;;;;5091276;28;20226;-70
2021/07/21 12:25:23;;;;;;;15.25;10.27;;;30.00;56.50;30.60;97123.00;;;;5092406;28;20201;-70
2021/07/21 12:28:12;;;;;;;11.70;10.10;;;30.00;57.80;31.80;97121.00;;;;5090819;28;20318;-70
2021/07/21 12:31:03;;;;;;;11.02;8.57;;;30.30;58.00;32.30;97138.00;;;;5090636;28;20202;-70
2021/07/21 12:33:52;;;;;;;11.95;10.07;;;30.80;57.40;31.90;97124.00;;;;5080233;28;20207;-71
2021/07/21 12:36:46;;;;;;;10.88;9.07;;;31.10;55.70;31.90;97114.00;;;;5076293;28;20221;-70